sensor_id;sensor_type;location;lat;lon;timestamp;P1;durP1;ratioP1;P2;durP2;ratioP2
7473;SDS011;3778;42.572;23.426;2023-03-01T00:02:16;2.23;;;1.90;;
7473;SDS011;3778;42.572;23.426;2023-03-01T00:04:43;2.00;;;1.77;;
7473;SDS011;3778;42.572;23.426;2023-03-01T00:07:09;1.87;;;1.57;;
7473;SDS011;3778;42.572;23.426;2023-03-01T00:09:36;1.67;;;1.50;;
7473;SDS011;3778;42.572;23.426;2023-03-01T00:12:05;1.50;;;1.40;;
7473;SDS011;3778;42.572;23.426;2023-03-01T00:14:32;1.70;;;1.60;;
7473;SDS011;3778;42.572;23.426;2023-03-01T00:17:00;1.40;;;1.30;;
7473;SDS011;3778;42.572;23.426;2023-03-01T00:19:27;1.40;;;1.30;;
7473;SDS011;3778;42.572;23.426;2023-03-01T00:21:53;1.43;;;1.33;;
7473;SDS011;3778;42.572;23.426;2023-03-01T00:24:20;1.30;;;1.20;;
7473;SDS011;3778;42.572;23.426;2023-03-01T00:26:47;1.47;;;1.37;;
7473;SDS011;3778;42.572;23.426;2023-03-01T00:29:14;1.20;;;1.10;;
7473;SDS011;3778;42.572;23.426;2023-03-01T00:31:41;1.40;;;1.30;;
7473;SDS011;3778;42.572;23.426;2023-03-01T00:34:09;0.90;;;0.90;;
7473;SDS011;3778;42.572;23.426;2023-03-01T00:36:36;0.90;;;0.90;;
7473;SDS011;3778;42.572;23.426;2023-03-01T00:39:04;1.20;;;1.10;;
7473;SDS011;3778;42.572;23.426;2023-03-01T00:41:33;1.10;;;1.10;;
7473;SDS011;3778;42.572;23.426;2023-03-01T00:44:00;1.33;;;1.23;;
7473;SDS011;3778;42.572;23.426;2023-03-01T00:46:27;1.27;;;1.10;;
7473;SDS011;3778;42.572;23.426;2023-03-01T00:48:55;0.90;;;0.90;;
7473;SDS011;3778;42.572;23.426;2023-03-01T00:51:24;1.10;;;1.10;;
7473;SDS011;3778;42.572;23.426;2023-03-01T00:53:52;1.30;;;1.20;;
7473;SDS011;3778;42.572;23.426;2023-03-01T00:56:20;1.10;;;1.00;;
7473;SDS011;3778;42.572;23.426;2023-03-01T00:58:47;0.80;;;0.80;;
7473;SDS011;3778;42.572;23.426;2023-03-01T01:01:15;0.80;;;0.80;;
7473;SDS011;3778;42.572;23.426;2023-03-01T01:03:46;0.83;;;0.83;;
7473;SDS011;3778;42.572;23.426;2023-03-01T01:06:15;0.93;;;0.93;;
7473;SDS011;3778;42.572;23.426;2023-03-01T01:08:44;1.00;;;1.00;;
7473;SDS011;3778;42.572;23.426;2023-03-01T01:11:11;1.03;;;1.00;;
7473;SDS011;3778;42.572;23.426;2023-03-01T01:13:39;0.90;;;0.90;;
7473;SDS011;3778;42.572;23.426;2023-03-01T01:16:06;0.93;;;0.93;;
7473;SDS011;3778;42.572;23.426;2023-03-01T01:18:33;1.13;;;1.07;;
7473;SDS011;3778;42.572;23.426;2023-03-01T01:21:03;0.80;;;0.80;;
7473;SDS011;3778;42.572;23.426;2023-03-01T01:23:30;1.27;;;1.03;;
7473;SDS011;3778;42.572;23.426;2023-03-01T01:25:59;0.93;;;0.93;;
7473;SDS011;3778;42.572;23.426;2023-03-01T01:28:30;0.87;;;0.87;;
7473;SDS011;3778;42.572;23.426;2023-03-01T01:30:57;1.00;;;1.00;;
7473;SDS011;3778;42.572;23.426;2023-03-01T01:33:23;0.83;;;0.83;;
7473;SDS011;3778;42.572;23.426;2023-03-01T01:35:50;0.80;;;0.80;;
7473;SDS011;3778;42.572;23.426;2023-03-01T01:38:17;0.90;;;0.90;;
7473;SDS011;3778;42.572;23.426;2023-03-01T01:40:44;1.07;;;1.07;;
7473;SDS011;3778;42.572;23.426;2023-03-01T01:43:14;1.00;;;1.00;;
7473;SDS011;3778;42.572;23.426;2023-03-01T01:45:45;1.10;;;1.10;;
7473;SDS011;3778;42.572;23.426;2023-03-01T01:48:12;0.90;;;0.90;;
7473;SDS011;3778;42.572;23.426;2023-03-01T01:50:42;1.30;;;1.20;;
7473;SDS011;3778;42.572;23.426;2023-03-01T01:53:10;1.40;;;1.30;;
7473;SDS011;3778;42.572;23.426;2023-03-01T01:55:41;1.27;;;1.17;;
7473;SDS011;3778;42.572;23.426;2023-03-01T01:58:12;1.23;;;1.13;;
7473;SDS011;3778;42.572;23.426;2023-03-01T02:00:43;1.30;;;1.20;;
7473;SDS011;3778;42.572;23.426;2023-03-01T02:03:11;1.83;;;1.50;;
7473;SDS011;3778;42.572;23.426;2023-03-01T02:05:43;2.33;;;1.50;;
7473;SDS011;3778;42.572;23.426;2023-03-01T02:08:14;1.50;;;1.40;;
7473;SDS011;3778;42.572;23.426;2023-03-01T02:10:44;1.20;;;1.10;;
7473;SDS011;3778;42.572;23.426;2023-03-01T02:13:12;1.77;;;1.57;;
7473;SDS011;3778;42.572;23.426;2023-03-01T02:15:40;2.00;;;1.80;;
7473;SDS011;3778;42.572;23.426;2023-03-01T02:18:09;1.93;;;1.60;;
7473;SDS011;3778;42.572;23.426;2023-03-01T02:20:39;2.00;;;1.67;;
7473;SDS011;3778;42.572;23.426;2023-03-01T02:23:15;3.50;;;1.70;;
7473;SDS011;3778;42.572;23.426;2023-03-01T02:25:46;2.70;;;1.90;;
7473;SDS011;3778;42.572;23.426;2023-03-01T02:28:22;2.37;;;1.90;;
7473;SDS011;3778;42.572;23.426;2023-03-01T02:30:51;2.10;;;1.60;;
7473;SDS011;3778;42.572;23.426;2023-03-01T02:33:38;2.77;;;1.93;;
7473;SDS011;3778;42.572;23.426;2023-03-01T02:36:08;3.03;;;2.10;;
7473;SDS011;3778;42.572;23.426;2023-03-01T02:38:38;2.60;;;2.03;;
7473;SDS011;3778;42.572;23.426;2023-03-01T02:41:05;3.97;;;2.53;;
7473;SDS011;3778;42.572;23.426;2023-03-01T02:43:35;2.90;;;2.10;;
7473;SDS011;3778;42.572;23.426;2023-03-01T02:46:03;3.17;;;2.33;;
7473;SDS011;3778;42.572;23.426;2023-03-01T02:48:39;3.57;;;2.10;;
7473;SDS011;3778;42.572;23.426;2023-03-01T02:51:07;2.63;;;2.13;;
7473;SDS011;3778;42.572;23.426;2023-03-01T02:53:45;3.83;;;2.63;;
7473;SDS011;3778;42.572;23.426;2023-03-01T02:56:20;2.40;;;2.07;;
7473;SDS011;3778;42.572;23.426;2023-03-01T02:58:48;3.67;;;2.10;;
7473;SDS011;3778;42.572;23.426;2023-03-01T03:01:17;2.73;;;2.40;;
7473;SDS011;3778;42.572;23.426;2023-03-01T03:03:44;2.67;;;2.20;;
7473;SDS011;3778;42.572;23.426;2023-03-01T03:06:11;3.23;;;2.43;;
7473;SDS011;3778;42.572;23.426;2023-03-01T03:08:38;2.80;;;2.50;;
7473;SDS011;3778;42.572;23.426;2023-03-01T03:11:05;3.40;;;2.50;;
7473;SDS011;3778;42.572;23.426;2023-03-01T03:13:32;2.80;;;2.23;;
7473;SDS011;3778;42.572;23.426;2023-03-01T03:16:00;3.37;;;2.33;;
7473;SDS011;3778;42.572;23.426;2023-03-01T03:18:28;2.93;;;2.40;;
7473;SDS011;3778;42.572;23.426;2023-03-01T03:20:55;3.57;;;2.30;;
7473;SDS011;3778;42.572;23.426;2023-03-01T03:23:22;3.40;;;2.20;;
7473;SDS011;3778;42.572;23.426;2023-03-01T03:25:49;3.03;;;2.33;;
7473;SDS011;3778;42.572;23.426;2023-03-01T03:28:16;2.97;;;2.40;;
7473;SDS011;3778;42.572;23.426;2023-03-01T03:30:43;3.63;;;2.47;;
7473;SDS011;3778;42.572;23.426;2023-03-01T03:33:13;2.23;;;2.03;;
7473;SDS011;3778;42.572;23.426;2023-03-01T03:35:40;2.13;;;1.80;;
7473;SDS011;3778;42.572;23.426;2023-03-01T03:38:09;2.87;;;2.20;;
7473;SDS011;3778;42.572;23.426;2023-03-01T03:40:41;2.43;;;1.97;;
7473;SDS011;3778;42.572;23.426;2023-03-01T03:43:09;3.50;;;2.40;;
7473;SDS011;3778;42.572;23.426;2023-03-01T03:45:37;3.27;;;2.27;;
7473;SDS011;3778;42.572;23.426;2023-03-01T03:48:05;2.90;;;2.10;;
7473;SDS011;3778;42.572;23.426;2023-03-01T03:50:35;3.53;;;2.77;;
7473;SDS011;3778;42.572;23.426;2023-03-01T03:53:03;3.10;;;2.60;;
7473;SDS011;3778;42.572;23.426;2023-03-01T03:55:32;3.00;;;2.00;;
7473;SDS011;3778;42.572;23.426;2023-03-01T03:57:59;3.07;;;2.03;;
7473;SDS011;3778;42.572;23.426;2023-03-01T04:00:32;3.13;;;2.27;;
7473;SDS011;3778;42.572;23.426;2023-03-01T04:02:59;2.20;;;1.87;;
7473;SDS011;3778;42.572;23.426;2023-03-01T04:05:26;4.63;;;2.30;;
7473;SDS011;3778;42.572;23.426;2023-03-01T04:07:55;2.33;;;1.90;;
7473;SDS011;3778;42.572;23.426;2023-03-01T04:10:32;2.80;;;2.23;;
7473;SDS011;3778;42.572;23.426;2023-03-01T04:13:01;3.33;;;2.97;;
7473;SDS011;3778;42.572;23.426;2023-03-01T04:15:28;4.43;;;3.10;;
7473;SDS011;3778;42.572;23.426;2023-03-01T04:17:54;3.20;;;2.50;;
7473;SDS011;3778;42.572;23.426;2023-03-01T04:20:22;4.07;;;2.83;;
7473;SDS011;3778;42.572;23.426;2023-03-01T04:22:51;2.90;;;2.30;;
7473;SDS011;3778;42.572;23.426;2023-03-01T04:25:20;3.30;;;2.30;;
7473;SDS011;3778;42.572;23.426;2023-03-01T04:27:46;4.20;;;3.10;;
7473;SDS011;3778;42.572;23.426;2023-03-01T04:30:13;3.70;;;3.03;;
7473;SDS011;3778;42.572;23.426;2023-03-01T04:32:40;3.63;;;2.87;;
7473;SDS011;3778;42.572;23.426;2023-03-01T04:35:07;4.50;;;2.90;;
7473;SDS011;3778;42.572;23.426;2023-03-01T04:37:34;5.73;;;3.53;;
7473;SDS011;3778;42.572;23.426;2023-03-01T04:40:01;3.53;;;2.80;;
7473;SDS011;3778;42.572;23.426;2023-03-01T04:42:38;4.40;;;2.70;;
7473;SDS011;3778;42.572;23.426;2023-03-01T04:45:06;4.10;;;2.97;;
7473;SDS011;3778;42.572;23.426;2023-03-01T04:47:38;4.30;;;2.77;;
7473;SDS011;3778;42.572;23.426;2023-03-01T04:50:05;3.33;;;2.40;;
7473;SDS011;3778;42.572;23.426;2023-03-01T04:52:33;2.60;;;2.40;;
7473;SDS011;3778;42.572;23.426;2023-03-01T04:55:00;2.93;;;2.53;;
7473;SDS011;3778;42.572;23.426;2023-03-01T04:57:28;3.17;;;2.60;;
7473;SDS011;3778;42.572;23.426;2023-03-01T04:59:56;2.93;;;2.30;;
7473;SDS011;3778;42.572;23.426;2023-03-01T05:02:23;3.53;;;2.30;;
7473;SDS011;3778;42.572;23.426;2023-03-01T05:04:50;2.73;;;2.20;;
7473;SDS011;3778;42.572;23.426;2023-03-01T05:07:17;2.13;;;1.93;;
7473;SDS011;3778;42.572;23.426;2023-03-01T05:09:45;4.07;;;2.20;;
7473;SDS011;3778;42.572;23.426;2023-03-01T05:12:12;2.60;;;2.13;;
7473;SDS011;3778;42.572;23.426;2023-03-01T05:14:39;2.43;;;2.17;;
7473;SDS011;3778;42.572;23.426;2023-03-01T05:17:07;3.27;;;2.40;;
7473;SDS011;3778;42.572;23.426;2023-03-01T05:19:34;2.53;;;2.13;;
7473;SDS011;3778;42.572;23.426;2023-03-01T05:22:01;2.60;;;2.30;;
7473;SDS011;3778;42.572;23.426;2023-03-01T05:24:29;3.40;;;2.20;;
7473;SDS011;3778;42.572;23.426;2023-03-01T05:26:57;2.53;;;2.20;;
7473;SDS011;3778;42.572;23.426;2023-03-01T05:29:25;2.27;;;1.90;;
7473;SDS011;3778;42.572;23.426;2023-03-01T05:31:53;3.30;;;2.30;;
7473;SDS011;3778;42.572;23.426;2023-03-01T05:34:24;2.73;;;2.17;;
7473;SDS011;3778;42.572;23.426;2023-03-01T05:36:51;2.83;;;2.10;;
7473;SDS011;3778;42.572;23.426;2023-03-01T05:39:18;3.00;;;2.40;;
7473;SDS011;3778;42.572;23.426;2023-03-01T05:41:46;3.27;;;1.97;;
7473;SDS011;3778;42.572;23.426;2023-03-01T05:44:13;2.20;;;1.90;;
7473;SDS011;3778;42.572;23.426;2023-03-01T05:46:41;2.90;;;2.30;;
7473;SDS011;3778;42.572;23.426;2023-03-01T05:49:07;2.20;;;2.00;;
7473;SDS011;3778;42.572;23.426;2023-03-01T05:51:35;1.97;;;1.73;;
7473;SDS011;3778;42.572;23.426;2023-03-01T05:54:02;2.63;;;1.73;;
7473;SDS011;3778;42.572;23.426;2023-03-01T05:56:31;1.70;;;1.60;;
7473;SDS011;3778;42.572;23.426;2023-03-01T05:58:58;3.93;;;1.63;;
7473;SDS011;3778;42.572;23.426;2023-03-01T06:01:25;2.00;;;1.80;;
7473;SDS011;3778;42.572;23.426;2023-03-01T06:03:52;1.87;;;1.73;;
7473;SDS011;3778;42.572;23.426;2023-03-01T06:06:19;1.80;;;1.70;;
7473;SDS011;3778;42.572;23.426;2023-03-01T06:08:47;2.90;;;2.20;;
7473;SDS011;3778;42.572;23.426;2023-03-01T06:11:14;2.20;;;2.00;;
7473;SDS011;3778;42.572;23.426;2023-03-01T06:13:41;1.80;;;1.70;;
7473;SDS011;3778;42.572;23.426;2023-03-01T06:16:08;2.00;;;1.80;;
7473;SDS011;3778;42.572;23.426;2023-03-01T06:18:35;1.80;;;1.70;;
7473;SDS011;3778;42.572;23.426;2023-03-01T06:21:03;2.33;;;1.60;;
7473;SDS011;3778;42.572;23.426;2023-03-01T06:23:30;2.17;;;1.40;;
7473;SDS011;3778;42.572;23.426;2023-03-01T06:25:59;1.50;;;1.40;;
7473;SDS011;3778;42.572;23.426;2023-03-01T06:28:26;2.57;;;1.43;;
7473;SDS011;3778;42.572;23.426;2023-03-01T06:30:52;1.30;;;1.20;;
7473;SDS011;3778;42.572;23.426;2023-03-01T06:33:19;1.40;;;1.30;;
7473;SDS011;3778;42.572;23.426;2023-03-01T06:35:48;1.43;;;1.33;;
7473;SDS011;3778;42.572;23.426;2023-03-01T06:38:15;1.30;;;1.20;;
7473;SDS011;3778;42.572;23.426;2023-03-01T06:40:44;1.57;;;1.13;;
7473;SDS011;3778;42.572;23.426;2023-03-01T06:43:12;1.60;;;1.20;;
7473;SDS011;3778;42.572;23.426;2023-03-01T06:45:39;1.80;;;1.30;;
7473;SDS011;3778;42.572;23.426;2023-03-01T06:48:06;3.67;;;2.30;;
7473;SDS011;3778;42.572;23.426;2023-03-01T06:50:33;1.47;;;1.37;;
7473;SDS011;3778;42.572;23.426;2023-03-01T06:53:01;4.10;;;2.60;;
7473;SDS011;3778;42.572;23.426;2023-03-01T06:55:31;2.13;;;1.40;;
7473;SDS011;3778;42.572;23.426;2023-03-01T06:57:58;1.60;;;1.50;;
7473;SDS011;3778;42.572;23.426;2023-03-01T07:00:27;2.13;;;1.70;;
7473;SDS011;3778;42.572;23.426;2023-03-01T07:02:54;2.10;;;1.80;;
7473;SDS011;3778;42.572;23.426;2023-03-01T07:05:24;3.20;;;1.90;;
7473;SDS011;3778;42.572;23.426;2023-03-01T07:07:50;1.67;;;1.50;;
7473;SDS011;3778;42.572;23.426;2023-03-01T07:10:17;1.70;;;1.60;;
7473;SDS011;3778;42.572;23.426;2023-03-01T07:12:44;1.70;;;1.60;;
7473;SDS011;3778;42.572;23.426;2023-03-01T07:15:11;2.40;;;2.00;;
7473;SDS011;3778;42.572;23.426;2023-03-01T07:17:41;2.70;;;2.00;;
7473;SDS011;3778;42.572;23.426;2023-03-01T07:20:10;1.63;;;1.53;;
7473;SDS011;3778;42.572;23.426;2023-03-01T07:22:39;1.50;;;1.40;;
7473;SDS011;3778;42.572;23.426;2023-03-01T07:25:06;1.93;;;1.73;;
7473;SDS011;3778;42.572;23.426;2023-03-01T07:27:33;1.80;;;1.60;;
7473;SDS011;3778;42.572;23.426;2023-03-01T07:30:00;2.93;;;1.87;;
7473;SDS011;3778;42.572;23.426;2023-03-01T07:32:27;3.10;;;1.87;;
7473;SDS011;3778;42.572;23.426;2023-03-01T07:34:55;2.27;;;2.07;;
7473;SDS011;3778;42.572;23.426;2023-03-01T07:37:21;2.53;;;2.00;;
7473;SDS011;3778;42.572;23.426;2023-03-01T07:39:48;2.70;;;1.73;;
7473;SDS011;3778;42.572;23.426;2023-03-01T07:42:15;2.23;;;2.03;;
7473;SDS011;3778;42.572;23.426;2023-03-01T07:44:41;4.50;;;2.27;;
7473;SDS011;3778;42.572;23.426;2023-03-01T07:47:08;2.27;;;2.03;;
7473;SDS011;3778;42.572;23.426;2023-03-01T07:49:35;2.60;;;2.17;;
7473;SDS011;3778;42.572;23.426;2023-03-01T07:52:03;2.57;;;2.20;;
7473;SDS011;3778;42.572;23.426;2023-03-01T07:54:30;2.77;;;2.20;;
7473;SDS011;3778;42.572;23.426;2023-03-01T07:56:57;2.37;;;2.17;;
7473;SDS011;3778;42.572;23.426;2023-03-01T07:59:23;4.30;;;2.47;;
7473;SDS011;3778;42.572;23.426;2023-03-01T08:01:53;2.97;;;2.33;;
7473;SDS011;3778;42.572;23.426;2023-03-01T08:04:20;3.43;;;2.50;;
7473;SDS011;3778;42.572;23.426;2023-03-01T08:06:48;3.00;;;2.70;;
7473;SDS011;3778;42.572;23.426;2023-03-01T08:09:16;2.50;;;2.30;;
7473;SDS011;3778;42.572;23.426;2023-03-01T08:11:43;3.73;;;2.83;;
7473;SDS011;3778;42.572;23.426;2023-03-01T08:14:09;2.53;;;2.33;;
7473;SDS011;3778;42.572;23.426;2023-03-01T08:16:36;2.90;;;2.47;;
7473;SDS011;3778;42.572;23.426;2023-03-01T08:19:03;2.87;;;2.43;;
7473;SDS011;3778;42.572;23.426;2023-03-01T08:21:30;3.80;;;2.53;;
7473;SDS011;3778;42.572;23.426;2023-03-01T08:23:59;2.87;;;1.97;;
7473;SDS011;3778;42.572;23.426;2023-03-01T08:26:28;2.60;;;2.10;;
7473;SDS011;3778;42.572;23.426;2023-03-01T08:28:54;2.27;;;1.97;;
7473;SDS011;3778;42.572;23.426;2023-03-01T08:31:22;3.73;;;1.70;;
7473;SDS011;3778;42.572;23.426;2023-03-01T08:33:52;4.03;;;2.60;;
7473;SDS011;3778;42.572;23.426;2023-03-01T08:36:21;2.57;;;2.00;;
7473;SDS011;3778;42.572;23.426;2023-03-01T08:38:48;2.10;;;1.87;;
7473;SDS011;3778;42.572;23.426;2023-03-01T08:41:15;2.57;;;2.20;;
7473;SDS011;3778;42.572;23.426;2023-03-01T08:43:43;3.00;;;2.20;;
7473;SDS011;3778;42.572;23.426;2023-03-01T08:46:10;2.73;;;2.10;;
7473;SDS011;3778;42.572;23.426;2023-03-01T08:48:37;1.70;;;1.57;;
7473;SDS011;3778;42.572;23.426;2023-03-01T08:51:08;1.80;;;1.70;;
7473;SDS011;3778;42.572;23.426;2023-03-01T08:53:36;2.70;;;2.10;;
7473;SDS011;3778;42.572;23.426;2023-03-01T08:56:02;2.67;;;1.97;;
7473;SDS011;3778;42.572;23.426;2023-03-01T08:58:30;2.63;;;1.97;;
7473;SDS011;3778;42.572;23.426;2023-03-01T09:00:58;2.67;;;2.00;;
7473;SDS011;3778;42.572;23.426;2023-03-01T09:03:25;1.90;;;1.80;;
7473;SDS011;3778;42.572;23.426;2023-03-01T09:05:52;2.60;;;1.90;;
7473;SDS011;3778;42.572;23.426;2023-03-01T09:08:19;2.10;;;1.90;;
7473;SDS011;3778;42.572;23.426;2023-03-01T09:10:46;2.27;;;2.00;;
7473;SDS011;3778;42.572;23.426;2023-03-01T09:13:13;6.40;;;2.20;;
7473;SDS011;3778;42.572;23.426;2023-03-01T09:15:39;2.30;;;2.10;;
7473;SDS011;3778;42.572;23.426;2023-03-01T09:18:07;2.60;;;2.00;;
7473;SDS011;3778;42.572;23.426;2023-03-01T09:20:34;2.50;;;2.30;;
7473;SDS011;3778;42.572;23.426;2023-03-01T09:23:01;2.43;;;2.20;;
7473;SDS011;3778;42.572;23.426;2023-03-01T09:25:28;3.53;;;2.23;;
7473;SDS011;3778;42.572;23.426;2023-03-01T09:27:54;2.83;;;2.03;;
7473;SDS011;3778;42.572;23.426;2023-03-01T09:30:21;3.67;;;1.97;;
7473;SDS011;3778;42.572;23.426;2023-03-01T09:32:49;3.03;;;2.40;;
7473;SDS011;3778;42.572;23.426;2023-03-01T09:35:17;5.07;;;2.20;;
7473;SDS011;3778;42.572;23.426;2023-03-01T09:37:45;6.70;;;2.97;;
7473;SDS011;3778;42.572;23.426;2023-03-01T09:40:12;2.70;;;2.27;;
7473;SDS011;3778;42.572;23.426;2023-03-01T09:42:46;3.47;;;2.53;;
7473;SDS011;3778;42.572;23.426;2023-03-01T09:45:23;2.53;;;2.33;;
7473;SDS011;3778;42.572;23.426;2023-03-01T09:47:53;2.57;;;2.20;;
7473;SDS011;3778;42.572;23.426;2023-03-01T09:50:23;2.30;;;2.10;;
7473;SDS011;3778;42.572;23.426;2023-03-01T09:52:54;3.00;;;2.07;;
7473;SDS011;3778;42.572;23.426;2023-03-01T09:55:30;2.30;;;2.10;;
7473;SDS011;3778;42.572;23.426;2023-03-01T09:58:00;3.93;;;2.33;;
7473;SDS011;3778;42.572;23.426;2023-03-01T10:00:36;2.97;;;2.40;;
7473;SDS011;3778;42.572;23.426;2023-03-01T10:03:10;5.90;;;2.40;;
7473;SDS011;3778;42.572;23.426;2023-03-01T10:05:52;3.47;;;2.43;;
7473;SDS011;3778;42.572;23.426;2023-03-01T10:08:26;3.40;;;3.00;;
7473;SDS011;3778;42.572;23.426;2023-03-01T10:10:56;3.60;;;2.70;;
7473;SDS011;3778;42.572;23.426;2023-03-01T10:13:25;4.43;;;2.77;;
7473;SDS011;3778;42.572;23.426;2023-03-01T10:15:56;2.67;;;2.13;;
7473;SDS011;3778;42.572;23.426;2023-03-01T10:18:28;2.60;;;2.13;;
7473;SDS011;3778;42.572;23.426;2023-03-01T10:21:00;5.57;;;2.57;;
7473;SDS011;3778;42.572;23.426;2023-03-01T10:23:30;5.27;;;3.20;;
7473;SDS011;3778;42.572;23.426;2023-03-01T10:26:11;4.30;;;3.57;;
7473;SDS011;3778;42.572;23.426;2023-03-01T10:28:48;3.17;;;2.43;;
7473;SDS011;3778;42.572;23.426;2023-03-01T10:31:20;3.47;;;2.47;;
7473;SDS011;3778;42.572;23.426;2023-03-01T10:33:53;2.13;;;1.93;;
7473;SDS011;3778;42.572;23.426;2023-03-01T10:36:22;3.30;;;2.67;;
7473;SDS011;3778;42.572;23.426;2023-03-01T10:38:50;3.63;;;2.60;;
7473;SDS011;3778;42.572;23.426;2023-03-01T10:41:19;3.60;;;2.73;;
7473;SDS011;3778;42.572;23.426;2023-03-01T10:43:49;3.03;;;2.73;;
7473;SDS011;3778;42.572;23.426;2023-03-01T10:46:22;2.93;;;2.60;;
7473;SDS011;3778;42.572;23.426;2023-03-01T10:49:04;3.90;;;2.50;;
7473;SDS011;3778;42.572;23.426;2023-03-01T10:51:39;3.83;;;2.90;;
7473;SDS011;3778;42.572;23.426;2023-03-01T10:54:14;3.27;;;2.60;;
7473;SDS011;3778;42.572;23.426;2023-03-01T10:56:47;2.83;;;2.30;;
7473;SDS011;3778;42.572;23.426;2023-03-01T11:02:12;3.53;;;2.97;;
7473;SDS011;3778;42.572;23.426;2023-03-01T11:04:57;3.63;;;2.80;;
7473;SDS011;3778;42.572;23.426;2023-03-01T11:07:26;3.53;;;2.87;;
7473;SDS011;3778;42.572;23.426;2023-03-01T11:09:53;2.90;;;2.57;;
7473;SDS011;3778;42.572;23.426;2023-03-01T11:12:20;3.13;;;2.80;;
7473;SDS011;3778;42.572;23.426;2023-03-01T11:14:48;3.10;;;2.30;;
7473;SDS011;3778;42.572;23.426;2023-03-01T11:17:17;3.17;;;2.80;;
7473;SDS011;3778;42.572;23.426;2023-03-01T11:19:59;3.80;;;3.17;;
7473;SDS011;3778;42.572;23.426;2023-03-01T11:22:29;3.00;;;2.70;;
7473;SDS011;3778;42.572;23.426;2023-03-01T11:24:59;3.13;;;2.60;;
7473;SDS011;3778;42.572;23.426;2023-03-01T11:27:28;3.50;;;2.80;;
7473;SDS011;3778;42.572;23.426;2023-03-01T11:29:59;3.80;;;2.97;;
7473;SDS011;3778;42.572;23.426;2023-03-01T11:32:31;3.30;;;3.00;;
7473;SDS011;3778;42.572;23.426;2023-03-01T11:35:02;3.17;;;2.83;;
7473;SDS011;3778;42.572;23.426;2023-03-01T11:37:38;4.13;;;2.83;;
7473;SDS011;3778;42.572;23.426;2023-03-01T11:40:11;3.30;;;3.00;;
7473;SDS011;3778;42.572;23.426;2023-03-01T11:42:50;4.60;;;3.00;;
7473;SDS011;3778;42.572;23.426;2023-03-01T11:45:28;4.37;;;2.90;;
7473;SDS011;3778;42.572;23.426;2023-03-01T11:48:07;4.10;;;3.03;;
7473;SDS011;3778;42.572;23.426;2023-03-01T11:50:53;3.53;;;2.87;;
7473;SDS011;3778;42.572;23.426;2023-03-01T11:53:33;4.17;;;3.27;;
7473;SDS011;3778;42.572;23.426;2023-03-01T11:56:16;5.60;;;3.83;;
7473;SDS011;3778;42.572;23.426;2023-03-01T11:58:58;4.37;;;3.30;;
7473;SDS011;3778;42.572;23.426;2023-03-01T12:01:48;3.60;;;3.03;;
7473;SDS011;3778;42.572;23.426;2023-03-01T12:04:34;4.00;;;3.23;;
7473;SDS011;3778;42.572;23.426;2023-03-01T12:07:24;3.47;;;3.17;;
7473;SDS011;3778;42.572;23.426;2023-03-01T12:10:19;3.37;;;2.90;;
7473;SDS011;3778;42.572;23.426;2023-03-01T12:13:02;3.40;;;2.90;;
7473;SDS011;3778;42.572;23.426;2023-03-01T12:15:47;3.30;;;2.60;;
7473;SDS011;3778;42.572;23.426;2023-03-01T12:18:39;4.23;;;3.20;;
7473;SDS011;3778;42.572;23.426;2023-03-01T12:21:18;4.00;;;3.00;;
7473;SDS011;3778;42.572;23.426;2023-03-01T12:24:06;3.33;;;2.60;;
7473;SDS011;3778;42.572;23.426;2023-03-01T12:26:54;5.03;;;3.07;;
7473;SDS011;3778;42.572;23.426;2023-03-01T12:29:37;2.90;;;2.60;;
7473;SDS011;3778;42.572;23.426;2023-03-01T12:32:18;7.17;;;3.07;;
7473;SDS011;3778;42.572;23.426;2023-03-01T12:35:10;2.80;;;2.60;;
7473;SDS011;3778;42.572;23.426;2023-03-01T12:37:54;3.93;;;3.33;;
7473;SDS011;3778;42.572;23.426;2023-03-01T12:40:32;4.13;;;3.17;;
7473;SDS011;3778;42.572;23.426;2023-03-01T12:43:17;2.60;;;2.20;;
7473;SDS011;3778;42.572;23.426;2023-03-01T12:45:58;3.43;;;2.97;;
7473;SDS011;3778;42.572;23.426;2023-03-01T12:48:38;3.60;;;2.77;;
7473;SDS011;3778;42.572;23.426;2023-03-01T12:51:10;3.40;;;2.80;;
7473;SDS011;3778;42.572;23.426;2023-03-01T12:53:40;3.47;;;2.77;;
7473;SDS011;3778;42.572;23.426;2023-03-01T12:56:12;4.13;;;3.10;;
7473;SDS011;3778;42.572;23.426;2023-03-01T12:58:46;4.63;;;3.20;;
7473;SDS011;3778;42.572;23.426;2023-03-01T13:01:26;2.93;;;2.63;;
7473;SDS011;3778;42.572;23.426;2023-03-01T13:04:04;5.73;;;3.00;;
7473;SDS011;3778;42.572;23.426;2023-03-01T13:06:39;3.13;;;2.83;;
7473;SDS011;3778;42.572;23.426;2023-03-01T13:09:13;4.03;;;3.10;;
7473;SDS011;3778;42.572;23.426;2023-03-01T13:11:46;4.13;;;3.10;;
7473;SDS011;3778;42.572;23.426;2023-03-01T13:17:24;3.93;;;3.00;;
7473;SDS011;3778;42.572;23.426;2023-03-01T13:19:57;3.60;;;2.87;;
7473;SDS011;3778;42.572;23.426;2023-03-01T13:22:25;3.60;;;2.90;;
7473;SDS011;3778;42.572;23.426;2023-03-01T13:25:11;3.90;;;3.13;;
7473;SDS011;3778;42.572;23.426;2023-03-01T13:27:40;3.40;;;2.67;;
7473;SDS011;3778;42.572;23.426;2023-03-01T13:30:37;4.17;;;3.03;;
7473;SDS011;3778;42.572;23.426;2023-03-01T13:36:05;3.80;;;3.00;;
7473;SDS011;3778;42.572;23.426;2023-03-01T13:38:36;3.93;;;2.90;;
7473;SDS011;3778;42.572;23.426;2023-03-01T13:41:04;4.70;;;2.67;;
7473;SDS011;3778;42.572;23.426;2023-03-01T13:43:32;4.73;;;3.20;;
7473;SDS011;3778;42.572;23.426;2023-03-01T13:46:07;4.57;;;2.83;;
7473;SDS011;3778;42.572;23.426;2023-03-01T13:48:36;5.63;;;2.60;;
7473;SDS011;3778;42.572;23.426;2023-03-01T13:51:05;3.83;;;2.80;;
7473;SDS011;3778;42.572;23.426;2023-03-01T13:53:35;4.97;;;3.10;;
7473;SDS011;3778;42.572;23.426;2023-03-01T13:56:07;3.90;;;3.33;;
7473;SDS011;3778;42.572;23.426;2023-03-01T13:58:44;5.90;;;2.93;;
7473;SDS011;3778;42.572;23.426;2023-03-01T14:01:22;5.43;;;3.20;;
7473;SDS011;3778;42.572;23.426;2023-03-01T14:03:50;3.63;;;2.50;;
7473;SDS011;3778;42.572;23.426;2023-03-01T14:06:19;3.40;;;2.80;;
7473;SDS011;3778;42.572;23.426;2023-03-01T14:08:48;4.30;;;2.70;;
7473;SDS011;3778;42.572;23.426;2023-03-01T14:14:23;3.13;;;2.60;;
7473;SDS011;3778;42.572;23.426;2023-03-01T14:17:06;3.97;;;2.57;;
7473;SDS011;3778;42.572;23.426;2023-03-01T14:19:46;3.60;;;2.47;;
7473;SDS011;3778;42.572;23.426;2023-03-01T14:22:21;4.43;;;2.83;;
7473;SDS011;3778;42.572;23.426;2023-03-01T14:24:50;8.30;;;3.50;;
7473;SDS011;3778;42.572;23.426;2023-03-01T14:27:20;4.33;;;3.17;;
7473;SDS011;3778;42.572;23.426;2023-03-01T14:29:54;6.70;;;2.80;;
7473;SDS011;3778;42.572;23.426;2023-03-01T14:32:24;3.53;;;2.80;;
7473;SDS011;3778;42.572;23.426;2023-03-01T14:34:52;3.83;;;3.10;;
7473;SDS011;3778;42.572;23.426;2023-03-01T14:37:19;4.43;;;2.67;;
7473;SDS011;3778;42.572;23.426;2023-03-01T14:39:48;5.97;;;2.97;;
7473;SDS011;3778;42.572;23.426;2023-03-01T14:42:16;5.73;;;3.20;;
7473;SDS011;3778;42.572;23.426;2023-03-01T14:44:45;4.13;;;3.03;;
7473;SDS011;3778;42.572;23.426;2023-03-01T14:47:15;3.93;;;3.23;;
7473;SDS011;3778;42.572;23.426;2023-03-01T14:49:52;4.77;;;3.20;;
7473;SDS011;3778;42.572;23.426;2023-03-01T14:52:24;5.20;;;3.70;;
7473;SDS011;3778;42.572;23.426;2023-03-01T14:54:56;4.27;;;3.53;;
7473;SDS011;3778;42.572;23.426;2023-03-01T14:57:24;5.70;;;3.27;;
7473;SDS011;3778;42.572;23.426;2023-03-01T14:59:52;6.23;;;3.27;;
7473;SDS011;3778;42.572;23.426;2023-03-01T15:02:21;5.57;;;3.30;;
7473;SDS011;3778;42.572;23.426;2023-03-01T15:04:52;3.50;;;2.57;;
7473;SDS011;3778;42.572;23.426;2023-03-01T15:07:22;3.37;;;2.83;;
7473;SDS011;3778;42.572;23.426;2023-03-01T15:09:52;4.50;;;2.90;;
7473;SDS011;3778;42.572;23.426;2023-03-01T15:12:34;6.77;;;2.93;;
7473;SDS011;3778;42.572;23.426;2023-03-01T15:15:18;4.43;;;3.30;;
7473;SDS011;3778;42.572;23.426;2023-03-01T15:17:58;4.93;;;3.73;;
7473;SDS011;3778;42.572;23.426;2023-03-01T15:20:28;4.87;;;3.03;;
7473;SDS011;3778;42.572;23.426;2023-03-01T15:23:00;4.60;;;3.10;;
7473;SDS011;3778;42.572;23.426;2023-03-01T15:25:28;4.23;;;3.20;;
7473;SDS011;3778;42.572;23.426;2023-03-01T15:27:57;4.00;;;3.10;;
7473;SDS011;3778;42.572;23.426;2023-03-01T15:30:26;6.90;;;3.40;;
7473;SDS011;3778;42.572;23.426;2023-03-01T15:33:19;5.00;;;2.90;;